Time;durP1;ratioP1;P1;durP2;ratioP2;P2;SDS_P1;SDS_P2;PMS_P1;PMS_P2;Temp;Humidity;BMP_temperature;BMP_pressure;BME280_temperature;BME280_humidity;BME280_pressure;Samples;Min_cycle;Max_cycle;Signal;HPM_P1;HPM_P2
2022/08/10 00:01:51;;;;;;;20.85;19.55;;;14.80;99.90;;;;;;5038950;28;20052;-74
2022/08/10 00:04:23;;;;;;;22.40;20.80;;;14.80;99.90;;;;;;5016280;28;20072;-72
2022/08/10 00:06:52;;;;;;;21.65;20.20;;;14.90;99.90;;;;;;5015080;28;20045;-73
2022/08/10 00:09:20;;;;;;;21.25;19.88;;;14.90;99.90;;;;;;5033959;28;20078;-74
2022/08/10 00:11:47;;;;;;;21.45;20.25;;;14.80;99.90;;;;;;5020352;28;20052;-75
2022/08/10 00:14:14;;;;;;;21.77;20.38;;;14.70;99.90;;;;;;5018623;28;20133;-72
2022/08/10 00:16:41;;;;;;;21.77;20.00;;;14.60;99.90;;;;;;5015713;28;20041;-75
2022/08/10 00:19:08;;;;;;;20.83;19.52;;;14.60;99.90;;;;;;5019247;28;20061;-76
2022/08/10 00:21:35;;;;;;;21.25;19.60;;;14.60;99.90;;;;;;5015482;28;20051;-75
2022/08/10 00:24:03;;;;;;;20.73;19.50;;;14.50;99.90;;;;;;5018450;28;20132;-74
2022/08/10 00:26:29;;;;;;;21.13;19.63;;;14.70;99.90;;;;;;5030704;28;20052;-75
2022/08/10 00:29:16;;;;;;;21.40;20.00;;;14.50;99.90;;;;;;5017502;28;21508;-75
2022/08/10 00:31:43;;;;;;;21.27;19.88;;;14.40;99.90;;;;;;5032596;28;20751;-76
2022/08/10 00:34:28;;;;;;;21.35;19.75;;;14.40;99.90;;;;;;5030659;28;20048;-76
2022/08/10 00:36:55;;;;;;;21.73;20.30;;;14.30;99.90;;;;;;5017245;28;20060;-75
2022/08/10 00:39:22;;;;;;;21.08;19.70;;;14.40;99.90;;;;;;5031378;28;20528;-75
2022/08/10 00:41:50;;;;;;;21.38;20.08;;;14.20;99.90;;;;;;5019731;28;20102;-76
2022/08/10 00:44:34;;;;;;;21.13;19.63;;;14.20;99.90;;;;;;5031237;28;20379;-75
2022/08/10 00:47:01;;;;;;;20.85;19.50;;;14.20;99.90;;;;;;5034595;28;20239;-75
2022/08/10 00:49:27;;;;;;;21.30;19.92;;;14.20;99.90;;;;;;5031682;28;20044;-76
2022/08/10 00:51:55;;;;;;;21.58;20.08;;;14.20;99.90;;;;;;5036822;28;20056;-73
2022/08/10 00:54:22;;;;;;;21.30;19.90;;;14.10;99.90;;;;;;5011894;28;20509;-74
2022/08/10 00:56:51;;;;;;;21.55;20.17;;;14.10;99.90;;;;;;5034503;28;20302;-73
2022/08/10 00:59:38;;;;;;;21.67;20.27;;;14.10;99.90;;;;;;5037216;28;20534;-73
2022/08/10 01:02:25;;;;;;;21.23;19.92;;;14.10;99.90;;;;;;5025997;28;20301;-74
2022/08/10 01:04:52;;;;;;;21.20;19.77;;;14.00;99.90;;;;;;5051232;28;20079;-74
2022/08/10 01:07:49;;;;;;;20.83;19.52;;;14.00;99.90;;;;;;5024929;28;20557;-74
2022/08/10 01:10:22;;;;;;;21.60;20.02;;;14.10;99.90;;;;;;5031735;28;20399;-75
2022/08/10 01:13:26;;;;;;;21.58;20.20;;;14.00;99.90;;;;;;5028396;28;20072;-73
2022/08/10 01:16:25;;;;;;;21.52;20.23;;;14.10;99.90;;;;;;5024569;28;20647;-73
2022/08/10 01:19:24;;;;;;;21.85;20.45;;;14.20;99.90;;;;;;5042963;28;20052;-75
2022/08/10 01:22:22;;;;;;;21.95;20.55;;;14.40;99.90;;;;;;4958133;28;20462;-75
2022/08/10 01:25:20;;;;;;;21.95;20.55;;;14.50;99.90;;;;;;5024896;28;20052;-75
2022/08/10 01:27:58;;;;;;;22.45;20.85;;;14.40;99.90;;;;;;5023382;28;20040;-76
2022/08/10 01:30:28;;;;;;;22.17;20.67;;;14.20;99.90;;;;;;5024967;28;20156;-73
2022/08/10 01:33:09;;;;;;;22.80;21.20;;;14.10;99.90;;;;;;5016891;28;20114;-75
2022/08/10 01:35:49;;;;;;;21.65;20.35;;;14.00;99.90;;;;;;5013434;28;20037;-76
2022/08/10 01:38:25;;;;;;;22.33;20.63;;;13.90;99.90;;;;;;5039361;28;20048;-75
2022/08/10 01:40:57;;;;;;;22.98;20.77;;;14.00;99.90;;;;;;5023961;28;20373;-76
2022/08/10 01:43:26;;;;;;;20.95;19.40;;;13.70;99.90;;;;;;5043969;28;20076;-74
2022/08/10 01:45:58;;;;;;;22.48;20.77;;;13.60;99.90;;;;;;5034529;28;20048;-72
2022/08/10 01:48:30;;;;;;;21.98;20.38;;;13.60;99.90;;;;;;5045006;28;20553;-74
2022/08/10 01:51:09;;;;;;;21.83;20.38;;;13.60;99.90;;;;;;5018130;28;20093;-73
2022/08/10 01:53:41;;;;;;;20.88;19.67;;;13.50;99.90;;;;;;5007385;28;20069;-74
2022/08/10 01:56:11;;;;;;;20.95;19.65;;;13.50;99.90;;;;;;5040362;28;20055;-73
2022/08/10 01:58:39;;;;;;;21.23;19.77;;;13.50;99.90;;;;;;5028678;28;20373;-73
2022/08/10 02:01:09;;;;;;;21.88;20.38;;;13.60;99.90;;;;;;5029763;28;20077;-72
2022/08/10 02:03:46;;;;;;;21.35;19.80;;;13.50;99.90;;;;;;5016329;28;20049;-73
2022/08/10 02:06:35;;;;;;;21.98;20.30;;;13.40;99.90;;;;;;5030817;28;20041;-72
2022/08/10 02:09:04;;;;;;;21.70;20.27;;;13.50;99.90;;;;;;5033511;28;20458;-74
2022/08/10 02:11:35;;;;;;;21.75;20.25;;;13.40;99.90;;;;;;5012527;28;20033;-72
2022/08/10 02:14:26;;;;;;;21.83;20.25;;;13.40;99.90;;;;;;5030615;28;20051;-74
2022/08/10 02:17:06;;;;;;;20.73;19.52;;;13.60;99.90;;;;;;5031765;28;20474;-74
2022/08/10 02:19:36;;;;;;;20.80;19.45;;;13.50;99.90;;;;;;5030200;28;20374;-74
2022/08/10 02:22:05;;;;;;;21.90;20.27;;;13.50;99.90;;;;;;5033451;28;20135;-72
2022/08/10 02:24:54;;;;;;;21.65;20.10;;;13.50;99.90;;;;;;5044339;28;20407;-73
2022/08/10 02:27:23;;;;;;;21.05;19.58;;;13.50;99.90;;;;;;5027586;28;21482;-74
2022/08/10 02:29:52;;;;;;;20.90;19.60;;;13.50;99.90;;;;;;5034237;28;20117;-74
2022/08/10 02:32:21;;;;;;;20.58;19.10;;;13.50;99.90;;;;;;5027890;28;20044;-73
2022/08/10 02:35:08;;;;;;;20.83;19.58;;;13.40;99.90;;;;;;5054867;22;20068;-71
2022/08/10 02:37:50;;;;;;;21.30;19.90;;;13.30;99.90;;;;;;5032953;28;20055;-71
2022/08/10 02:40:18;;;;;;;21.23;19.83;;;13.30;99.90;;;;;;5033611;28;20310;-69
2022/08/10 02:43:14;;;;;;;21.05;19.65;;;13.20;99.90;;;;;;5043586;28;20473;-69
2022/08/10 02:46:09;;;;;;;21.55;20.02;;;13.20;99.90;;;;;;5036234;28;20053;-70
2022/08/10 02:48:44;;;;;;;21.13;19.52;;;13.00;99.90;;;;;;5035157;28;20110;-70
2022/08/10 02:51:19;;;;;;;21.65;20.08;;;13.00;99.90;;;;;;5048791;28;20052;-70
2022/08/10 02:54:09;;;;;;;20.70;19.40;;;13.00;99.90;;;;;;5039061;28;20628;-70
2022/08/10 02:56:42;;;;;;;20.83;19.63;;;13.00;99.90;;;;;;5033476;28;20037;-69
2022/08/10 02:59:22;;;;;;;20.75;19.55;;;13.00;99.90;;;;;;5049089;28;20086;-70
2022/08/10 03:01:54;;;;;;;21.33;19.77;;;13.00;99.90;;;;;;5035589;28;20099;-70
2022/08/10 03:04:27;;;;;;;21.70;20.10;;;12.90;99.90;;;;;;5045072;28;20455;-69
2022/08/10 03:07:18;;;;;;;21.30;19.70;;;13.00;99.90;;;;;;5036720;28;20455;-69
2022/08/10 03:10:07;;;;;;;20.73;19.17;;;13.00;99.90;;;;;;5052682;28;20099;-69
2022/08/10 03:12:42;;;;;;;21.27;19.88;;;13.00;99.90;;;;;;5047845;28;20513;-69
2022/08/10 03:15:11;;;;;;;21.70;19.77;;;12.90;99.90;;;;;;5044269;28;20029;-71
2022/08/10 03:17:44;;;;;;;20.90;19.63;;;12.80;99.90;;;;;;5043456;28;20055;-71
2022/08/10 03:20:29;;;;;;;20.73;19.33;;;12.80;99.90;;;;;;5048556;28;20078;-71
2022/08/10 03:23:25;;;;;;;20.48;19.17;;;12.80;99.90;;;;;;5036935;28;20134;-71
2022/08/10 03:25:54;;;;;;;20.80;19.50;;;13.00;99.90;;;;;;5045754;28;20068;-71
2022/08/10 03:28:30;;;;;;;20.90;19.25;;;13.00;99.90;;;;;;5047372;28;20264;-71
2022/08/10 03:30:58;;;;;;;20.85;19.55;;;13.00;99.90;;;;;;5053777;28;20091;-71
2022/08/10 03:33:29;;;;;;;21.27;19.65;;;12.90;99.90;;;;;;5040179;28;20048;-71
2022/08/10 03:35:56;;;;;;;21.23;19.80;;;12.80;99.90;;;;;;5047449;28;20049;-71
2022/08/10 03:38:47;;;;;;;21.10;19.77;;;12.80;99.90;;;;;;5043210;28;20041;-69
2022/08/10 03:41:17;;;;;;;21.65;20.15;;;12.80;99.90;;;;;;5047174;28;20068;-69
2022/08/10 03:43:47;;;;;;;20.98;19.45;;;12.70;99.90;;;;;;5044035;28;20609;-69
2022/08/10 03:46:20;;;;;;;21.25;19.83;;;12.70;99.90;;;;;;5036601;28;20055;-69
2022/08/10 03:48:51;;;;;;;22.17;20.45;;;12.70;99.90;;;;;;5041900;28;20079;-69
2022/08/10 03:51:19;;;;;;;21.15;19.80;;;12.60;99.90;;;;;;5036453;28;20099;-69
2022/08/10 03:53:46;;;;;;;21.70;20.08;;;12.60;99.90;;;;;;5059204;28;20124;-69
2022/08/10 03:56:33;;;;;;;20.98;19.38;;;12.60;99.90;;;;;;5034026;28;20185;-69
2022/08/10 03:59:01;;;;;;;21.05;19.48;;;12.60;99.90;;;;;;5049681;28;20504;-69
2022/08/10 04:01:29;;;;;;;21.67;20.08;;;12.60;99.90;;;;;;5046600;28;20099;-71
2022/08/10 04:04:16;;;;;;;20.85;19.42;;;12.50;99.90;;;;;;5037538;28;20116;-71
2022/08/10 04:06:51;;;;;;;20.50;19.20;;;12.40;99.90;;;;;;5047895;28;20045;-71
2022/08/10 04:09:22;;;;;;;20.05;18.85;;;12.40;99.90;;;;;;5042002;28;20753;-69
2022/08/10 04:11:49;;;;;;;21.77;20.20;;;12.50;99.90;;;;;;5045105;28;20044;-69
2022/08/10 04:14:16;;;;;;;19.75;18.42;;;12.60;99.90;;;;;;5033932;28;20037;-69
2022/08/10 04:17:03;;;;;;;20.85;19.42;;;12.50;99.90;;;;;;5035894;28;20044;-69
2022/08/10 04:19:39;;;;;;;21.00;19.50;;;12.60;99.90;;;;;;5038572;28;20053;-69
2022/08/10 04:22:12;;;;;;;21.15;19.65;;;12.50;99.90;;;;;;5046974;28;20045;-69
2022/08/10 04:24:43;;;;;;;20.15;18.85;;;12.50;99.90;;;;;;5034991;28;20056;-69
2022/08/10 04:27:10;;;;;;;21.98;20.23;;;12.40;99.90;;;;;;5047499;28;20426;-69
2022/08/10 04:29:37;;;;;;;22.13;20.20;;;12.50;99.90;;;;;;5045280;28;20401;-69
2022/08/10 04:32:06;;;;;;;20.77;19.48;;;12.50;99.90;;;;;;5043644;28;20067;-69
2022/08/10 04:34:34;;;;;;;20.17;19.08;;;12.40;99.90;;;;;;5038028;28;20094;-72
2022/08/10 04:37:04;;;;;;;21.00;19.40;;;12.50;99.90;;;;;;5038719;28;20531;-71
2022/08/10 04:39:35;;;;;;;20.65;19.10;;;12.50;99.90;;;;;;5048431;28;20422;-71
2022/08/10 04:42:03;;;;;;;22.35;20.35;;;12.50;99.90;;;;;;5045367;28;20115;-71
2022/08/10 04:44:29;;;;;;;20.70;19.25;;;12.50;99.90;;;;;;5056380;28;20044;-69
2022/08/10 04:46:56;;;;;;;20.90;19.60;;;12.70;99.90;;;;;;5042182;28;20047;-71
2022/08/10 04:49:25;;;;;;;20.55;18.90;;;12.80;99.90;;;;;;5036944;28;20028;-71
2022/08/10 04:52:12;;;;;;;20.20;18.67;;;12.70;99.90;;;;;;5051602;28;20320;-72
2022/08/10 04:54:39;;;;;;;20.50;18.70;;;12.70;99.90;;;;;;5037705;28;20495;-71
2022/08/10 04:57:07;;;;;;;20.17;18.75;;;12.80;99.90;;;;;;5037945;28;20041;-69
2022/08/10 04:59:34;;;;;;;21.52;19.83;;;12.80;99.90;;;;;;5038117;28;20230;-70
2022/08/10 05:02:01;;;;;;;20.85;19.45;;;12.80;99.90;;;;;;5044409;28;20446;-69
2022/08/10 05:04:47;;;;;;;20.40;19.00;;;12.80;99.90;;;;;;5038088;28;20163;-69
2022/08/10 05:07:15;;;;;;;21.60;19.85;;;12.80;99.90;;;;;;5039105;28;20279;-71
2022/08/10 05:09:47;;;;;;;20.00;18.77;;;12.90;99.90;;;;;;5042899;28;20056;-71
2022/08/10 05:12:37;;;;;;;21.92;20.25;;;12.90;99.90;;;;;;5038629;28;20068;-69
2022/08/10 05:15:10;;;;;;;21.38;19.92;;;13.10;99.90;;;;;;5041893;28;20073;-69
2022/08/10 05:17:39;;;;;;;20.50;19.08;;;13.20;99.90;;;;;;5045923;28;20404;-69
2022/08/10 05:20:08;;;;;;;20.10;18.80;;;13.20;99.90;;;;;;5047032;28;20049;-71
2022/08/10 05:22:37;;;;;;;21.10;19.55;;;13.30;99.90;;;;;;5037189;28;20313;-71
2022/08/10 05:25:07;;;;;;;20.98;19.38;;;13.30;99.90;;;;;;5048421;28;20613;-71
2022/08/10 05:27:34;;;;;;;19.98;18.67;;;13.40;99.90;;;;;;5035769;28;20041;-71
2022/08/10 05:30:02;;;;;;;20.83;19.52;;;13.40;99.90;;;;;;5046830;28;20135;-71
2022/08/10 05:32:31;;;;;;;20.50;18.75;;;13.50;99.90;;;;;;5040998;28;20206;-71
2022/08/10 05:35:18;;;;;;;21.83;19.77;;;13.70;99.90;;;;;;5050842;28;20135;-71
2022/08/10 05:37:46;;;;;;;20.48;18.75;;;13.90;99.90;;;;;;5046979;28;20340;-71
2022/08/10 05:40:36;;;;;;;20.63;19.23;;;14.00;99.90;;;;;;5036195;28;20524;-71
2022/08/10 05:43:04;;;;;;;21.02;19.52;;;14.10;99.90;;;;;;5045031;28;20079;-71
2022/08/10 05:45:31;;;;;;;20.42;19.15;;;14.20;99.90;;;;;;5036119;28;20376;-71
2022/08/10 05:47:57;;;;;;;20.65;19.20;;;14.30;99.90;;;;;;5042903;28;20496;-71
2022/08/10 05:50:44;;;;;;;20.77;19.23;;;14.50;99.90;;;;;;5044531;28;20340;-71
2022/08/10 05:53:11;;;;;;;21.02;19.42;;;14.60;99.90;;;;;;5038018;28;20459;-71
2022/08/10 05:55:58;;;;;;;21.42;19.80;;;14.70;99.90;;;;;;5042681;28;20045;-71
2022/08/10 05:58:25;;;;;;;21.20;19.80;;;15.10;99.90;;;;;;5035136;28;20544;-71
2022/08/10 06:00:55;;;;;;;20.60;19.27;;;15.10;99.90;;;;;;5045047;28;20049;-69
2022/08/10 06:03:28;;;;;;;20.50;19.30;;;15.30;99.90;;;;;;5040144;28;20052;-69
2022/08/10 06:05:57;;;;;;;21.25;19.83;;;15.50;99.90;;;;;;5042414;28;20103;-71
2022/08/10 06:08:30;;;;;;;21.60;20.05;;;15.60;99.90;;;;;;5035692;28;20483;-69
2022/08/10 06:11:00;;;;;;;21.13;19.60;;;15.80;99.90;;;;;;5049481;28;20498;-69
2022/08/10 06:16:43;;;;;;;22.58;21.17;;;16.60;99.90;;;;;;5048903;28;20401;-69
2022/08/10 06:19:11;;;;;;;23.02;21.50;;;17.30;99.90;;;;;;5049283;28;20117;-69
2022/08/10 06:21:42;;;;;;;23.40;21.88;;;17.60;99.90;;;;;;5032291;28;20049;-70
2022/08/10 06:24:29;;;;;;;23.52;21.98;;;18.00;99.90;;;;;;5041662;28;20127;-70
2022/08/10 06:26:58;;;;;;;23.27;21.67;;;18.60;99.90;;;;;;5035124;28;20048;-70
2022/08/10 06:29:27;;;;;;;23.15;21.27;;;18.90;99.90;;;;;;5051492;28;20059;-69
2022/08/10 06:31:55;;;;;;;22.77;21.27;;;19.40;99.90;;;;;;5038207;28;20526;-70
2022/08/10 06:34:32;;;;;;;22.98;21.48;;;19.90;99.90;;;;;;5030581;28;20053;-70
2022/08/10 06:37:03;;;;;;;23.45;22.05;;;20.00;99.90;;;;;;5048301;28;20514;-69
2022/08/10 06:39:31;;;;;;;23.35;21.83;;;20.20;99.90;;;;;;5045837;28;20049;-69
2022/08/10 06:42:32;;;;;;;24.25;22.75;;;20.40;99.90;;;;;;5041513;28;20049;-69
2022/08/10 06:45:04;;;;;;;23.77;22.13;;;20.90;99.90;;;;;;5035284;28;20063;-70
2022/08/10 06:47:55;;;;;;;24.63;22.92;;;21.10;99.90;;;;;;5048403;28;20052;-69
2022/08/10 06:50:34;;;;;;;25.45;23.85;;;21.20;99.90;;;;;;5040954;28;20102;-70
2022/08/10 06:53:24;;;;;;;25.20;23.70;;;21.10;99.90;;;;;;5040907;28;20036;-70
2022/08/10 06:56:14;;;;;;;26.15;24.40;;;21.00;99.90;;;;;;5034726;28;20495;-69
2022/08/10 06:58:49;;;;;;;25.25;23.77;;;21.30;99.90;;;;;;5034839;28;20564;-70
2022/08/10 07:01:21;;;;;;;25.35;23.85;;;21.40;99.90;;;;;;5043666;28;20052;-69
2022/08/10 07:03:56;;;;;;;25.30;23.77;;;21.60;99.90;;;;;;5051371;28;20099;-70
2022/08/10 07:06:24;;;;;;;26.00;24.38;;;21.70;99.90;;;;;;5031916;28;20640;-70
2022/08/10 07:08:52;;;;;;;27.60;25.58;;;21.90;99.90;;;;;;5040292;28;20072;-70
2022/08/10 07:11:20;;;;;;;26.55;24.75;;;21.80;99.90;;;;;;5039096;28;20040;-70
2022/08/10 07:13:47;;;;;;;26.83;25.23;;;21.70;99.90;;;;;;5046522;28;20106;-70
2022/08/10 07:16:38;;;;;;;27.70;26.00;;;22.40;99.90;;;;;;5039719;28;20070;-70
2022/08/10 07:19:07;;;;;;;26.95;25.23;;;22.70;99.90;;;;;;5051582;28;20098;-70
2022/08/10 07:21:35;;;;;;;27.33;25.73;;;22.80;99.90;;;;;;5043796;28;20506;-70
2022/08/10 07:24:06;;;;;;;27.35;25.70;;;22.80;99.90;;;;;;5035414;28;20534;-70
2022/08/10 07:26:36;;;;;;;27.58;25.80;;;22.70;99.90;;;;;;5043801;28;20041;-70
2022/08/10 07:29:04;;;;;;;27.23;25.65;;;23.00;99.90;;;;;;5045120;28;20041;-70
2022/08/10 07:31:32;;;;;;;28.45;26.42;;;23.10;99.90;;;;;;5044913;28;22429;-70
2022/08/10 07:34:21;;;;;;;28.17;26.38;;;23.10;99.90;;;;;;5044336;28;20579;-70
2022/08/10 07:37:01;;;;;;;27.98;26.17;;;23.00;99.90;;;;;;5048252;28;20550;-70
2022/08/10 07:39:31;;;;;;;27.38;25.63;;;23.40;99.90;;;;;;5035911;28;20083;-70
2022/08/10 07:42:22;;;;;;;27.38;25.77;;;23.70;99.90;;;;;;5037499;28;20132;-71
2022/08/10 07:44:49;;;;;;;27.60;25.85;;;23.50;99.90;;;;;;5043430;28;20040;-73
2022/08/10 07:47:23;;;;;;;27.75;25.92;;;23.30;99.90;;;;;;5046541;28;20036;-73
2022/08/10 07:50:14;;;;;;;27.65;25.95;;;23.00;99.90;;;;;;5048851;28;20041;-73
2022/08/10 07:52:42;;;;;;;28.08;26.20;;;23.40;99.90;;;;;;5043083;28;20045;-74
2022/08/10 07:55:14;;;;;;;27.90;26.00;;;23.60;99.90;;;;;;5051144;28;20049;-74
2022/08/10 07:57:43;;;;;;;28.20;26.45;;;23.70;99.90;;;;;;5042628;28;20045;-73
2022/08/10 08:00:11;;;;;;;27.88;26.13;;;23.90;99.90;;;;;;5039089;28;20509;-73
2022/08/10 08:02:48;;;;;;;28.40;26.58;;;24.20;99.90;;;;;;5038826;28;20056;-73
2022/08/10 08:05:15;;;;;;;28.58;26.98;;;24.10;99.90;;;;;;5047278;28;20052;-75
2022/08/10 08:08:04;;;;;;;29.42;27.10;;;23.60;99.90;;;;;;5043009;28;20040;-73
2022/08/10 08:10:31;;;;;;;29.08;27.05;;;24.10;99.90;;;;;;5050043;28;20131;-72
2022/08/10 08:13:00;;;;;;;28.80;27.05;;;23.70;99.90;;;;;;5041128;28;20107;-72
2022/08/10 08:15:27;;;;;;;28.13;26.40;;;23.50;99.90;;;;;;5037558;28;20293;-73
2022/08/10 08:18:16;;;;;;;28.65;26.85;;;23.30;99.90;;;;;;5043971;28;20139;-72
2022/08/10 08:20:51;;;;;;;27.73;26.02;;;23.70;99.90;;;;;;5032505;28;20049;-73
2022/08/10 08:23:21;;;;;;;27.58;25.85;;;24.00;99.90;;;;;;5040009;28;20426;-73
2022/08/10 08:26:09;;;;;;;28.20;26.55;;;23.80;99.90;;;;;;5052597;28;20511;-75
2022/08/10 08:28:37;;;;;;;28.67;27.08;;;23.50;99.90;;;;;;5053561;28;20483;-73
2022/08/10 08:31:04;;;;;;;29.38;27.13;;;23.90;99.90;;;;;;5049467;28;20271;-73
2022/08/10 08:33:33;;;;;;;29.63;27.88;;;23.90;99.90;;;;;;5041886;28;20888;-72
2022/08/10 08:36:10;;;;;;;28.58;26.85;;;23.60;99.90;;;;;;5041077;28;20578;-72
2022/08/10 08:38:39;;;;;;;28.83;27.23;;;23.50;99.90;;;;;;5048683;28;20060;-72
2022/08/10 08:41:21;;;;;;;30.55;28.45;;;23.60;99.90;;;;;;5052538;28;20071;-72
2022/08/10 08:44:03;;;;;;;28.25;26.45;;;23.80;99.90;;;;;;5044872;28;20076;-72
2022/08/10 08:46:42;;;;;;;28.73;26.58;;;24.00;99.90;;;;;;5050597;28;20044;-73
2022/08/10 08:49:20;;;;;;;29.63;27.77;;;24.20;99.90;;;;;;5032681;28;20068;-72
2022/08/10 08:52:32;;;;;;;29.35;27.58;;;24.50;99.90;;;;;;5046604;28;20045;-72
2022/08/10 08:55:22;;;;;;;30.20;28.30;;;24.60;99.90;;;;;;5038831;28;20041;-72
2022/08/10 08:58:27;;;;;;;28.77;27.08;;;24.70;99.90;;;;;;5042229;28;20049;-73
2022/08/10 09:01:09;;;;;;;29.02;27.33;;;24.80;99.90;;;;;;5042683;28;20063;-74
2022/08/10 09:04:01;;;;;;;28.98;27.33;;;25.10;99.90;;;;;;5049642;28;20664;-73
2022/08/10 09:06:52;;;;;;;30.35;28.40;;;25.00;99.90;;;;;;5042224;28;20091;-74
2022/08/10 09:09:56;;;;;;;31.27;29.23;;;24.70;99.90;;;;;;5039058;28;20515;-74
2022/08/10 09:13:05;;;;;;;30.48;28.58;;;24.70;99.90;;;;;;5036091;28;20119;-73
2022/08/10 09:15:45;;;;;;;29.88;28.00;;;24.30;99.90;;;;;;5050132;28;20041;-74
2022/08/10 09:18:30;;;;;;;31.27;29.08;;;24.30;99.90;;;;;;5047702;28;20053;-73
2022/08/10 09:21:08;;;;;;;30.45;28.52;;;25.00;99.90;;;;;;5037981;28;20099;-73
2022/08/10 09:23:46;;;;;;;30.70;28.58;;;25.40;99.90;;;;;;5041143;28;20564;-73
2022/08/10 09:26:40;;;;;;;31.27;29.08;;;25.70;99.90;;;;;;5046810;28;20136;-76
2022/08/10 09:29:13;;;;;;;31.65;29.42;;;25.70;99.90;;;;;;5058296;28;20051;-78
2022/08/10 09:31:48;;;;;;;32.97;30.77;;;25.70;99.90;;;;;;5048355;28;20064;-74
2022/08/10 09:35:12;;;;;;;31.73;29.83;;;25.70;99.90;;;;;;5042578;28;20542;-73
2022/08/10 09:38:11;;;;;;;31.27;29.58;;;25.50;99.90;;;;;;5038911;28;20049;-74
2022/08/10 09:40:57;;;;;;;32.35;30.40;;;25.80;99.90;;;;;;5042830;28;21567;-72
2022/08/10 09:43:51;;;;;;;31.63;29.70;;;25.70;99.90;;;;;;5044640;28;20502;-75
2022/08/10 09:46:49;;;;;;;31.02;29.15;;;25.80;99.90;;;;;;5037150;28;20107;-73
2022/08/10 09:49:35;;;;;;;31.25;29.13;;;25.90;99.90;;;;;;5053345;28;20044;-74
2022/08/10 09:52:47;;;;;;;31.02;29.13;;;25.70;99.90;;;;;;5042030;28;20130;-74
2022/08/10 09:55:27;;;;;;;31.08;29.08;;;25.30;99.90;;;;;;5041311;28;20052;-74
2022/08/10 09:58:30;;;;;;;30.88;28.95;;;25.60;99.90;;;;;;5052221;28;20071;-72
2022/08/10 10:01:11;;;;;;;32.38;30.25;;;25.80;99.90;;;;;;5050864;28;20041;-72
2022/08/10 10:04:03;;;;;;;32.30;30.40;;;25.90;99.90;;;;;;5044835;28;20037;-71
2022/08/10 10:06:53;;;;;;;32.35;30.30;;;25.90;99.90;;;;;;5041974;28;20041;-71
2022/08/10 10:09:44;;;;;;;29.88;27.85;;;25.70;99.90;;;;;;5050442;28;20048;-73
2022/08/10 10:12:49;;;;;;;31.77;29.95;;;25.50;99.90;;;;;;5043307;28;20345;-73
2022/08/10 10:15:30;;;;;;;32.70;30.90;;;25.70;99.90;;;;;;5044772;28;20518;-72
2022/08/10 10:18:06;;;;;;;31.83;29.92;;;25.60;99.90;;;;;;5052321;28;20424;-71
2022/08/10 10:20:38;;;;;;;32.72;30.83;;;25.70;99.90;;;;;;5045987;28;20041;-71
2022/08/10 10:23:41;;;;;;;31.30;29.50;;;25.50;99.90;;;;;;5051074;28;20049;-72
2022/08/10 10:26:55;;;;;;;32.97;31.13;;;25.90;99.90;;;;;;5049747;28;20061;-72
2022/08/10 10:29:40;;;;;;;31.48;29.70;;;25.80;99.90;;;;;;5042907;28;20041;-72
2022/08/10 10:32:51;;;;;;;32.97;30.98;;;26.30;99.90;;;;;;5043917;28;20233;-72
2022/08/10 10:35:30;;;;;;;32.55;30.63;;;26.80;99.90;;;;;;5050006;28;20048;-72
2022/08/10 10:38:00;;;;;;;34.33;32.20;;;26.70;99.60;;;;;;5043888;28;20486;-73
2022/08/10 10:41:06;;;;;;;33.33;31.40;;;27.40;99.80;;;;;;5040969;28;20114;-73
2022/08/10 10:44:07;;;;;;;33.08;31.17;;;27.50;99.90;;;;;;5030280;28;20096;-72
2022/08/10 10:46:56;;;;;;;33.45;31.45;;;27.20;99.90;;;;;;5018106;28;20647;-71
2022/08/10 10:49:51;;;;;;;32.67;30.85;;;27.10;99.90;;;;;;5046959;28;20101;-75
2022/08/10 10:52:55;;;;;;;34.90;32.92;;;27.00;99.50;;;;;;5050586;28;20554;-76
2022/08/10 10:55:29;;;;;;;33.40;31.50;;;26.80;99.90;;;;;;5049707;28;20457;-75
2022/08/10 10:58:07;;;;;;;35.25;33.08;;;26.80;99.90;;;;;;5048014;28;20503;-75
2022/08/10 11:00:52;;;;;;;34.65;32.80;;;26.70;99.50;;;;;;5044879;28;20044;-75
2022/08/10 11:03:38;;;;;;;;;;;26.70;99.10;;;;;;5051398;28;20109;-75
2022/08/10 11:06:17;;;;;;;34.25;32.33;;;27.10;99.70;;;;;;5046704;28;20545;-74
2022/08/10 11:08:48;;;;;;;32.88;30.88;;;27.50;99.80;;;;;;5032169;28;20046;-75
2022/08/10 11:11:31;;;;;;;34.53;32.60;;;27.60;99.80;;;;;;5045247;28;20068;-74
2022/08/10 11:14:43;;;;;;;33.60;31.52;;;27.70;98.70;;;;;;5048298;28;20044;-75
2022/08/10 11:17:28;;;;;;;33.92;31.73;;;27.20;98.50;;;;;;5049916;28;20097;-75
2022/08/10 11:20:23;;;;;;;33.47;31.48;;;26.60;98.40;;;;;;5044904;28;20387;-74
2022/08/10 11:23:16;;;;;;;32.90;31.00;;;26.60;98.30;;;;;;5048545;28;20521;-75
2022/08/10 11:25:49;;;;;;;32.88;30.98;;;27.30;97.90;;;;;;5049962;28;20068;-74
2022/08/10 11:28:45;;;;;;;32.50;30.45;;;28.00;98.00;;;;;;5053583;28;20094;-74
2022/08/10 11:31:18;;;;;;;34.38;32.35;;;28.80;98.10;;;;;;5050404;28;20045;-74
2022/08/10 11:34:16;;;;;;;31.95;30.13;;;29.10;96.80;;;;;;5030841;28;20129;-74
2022/08/10 11:37:35;;;;;;;33.70;31.70;;;29.60;97.20;;;;;;5044283;28;20394;-73
2022/08/10 11:40:34;;;;;;;33.58;31.60;;;28.10;97.60;;;;;;5051290;28;20033;-74
2022/08/10 11:43:21;;;;;;;33.40;31.40;;;28.30;97.50;;;;;;5049485;28;20098;-74
2022/08/10 11:45:55;;;;;;;31.98;29.88;;;28.50;97.20;;;;;;5042851;28;20493;-74
2022/08/10 11:49:10;;;;;;;34.28;32.10;;;28.40;97.20;;;;;;5042207;28;20048;-73
2022/08/10 11:52:02;;;;;;;33.35;31.25;;;27.50;98.30;;;;;;5015106;28;20352;-74
2022/08/10 11:54:36;;;;;;;34.47;32.42;;;27.30;99.10;;;;;;5037596;28;20078;-74
2022/08/10 11:57:02;;;;;;;34.72;32.35;;;27.30;98.30;;;;;;5052147;28;20090;-74
2022/08/10 12:02:45;;;;;;;33.92;31.83;;;27.90;96.80;;;;;;5042701;28;20052;-74
2022/08/10 12:05:29;;;;;;;34.50;32.40;;;28.80;96.80;;;;;;5046244;28;20126;-74
2022/08/10 12:08:18;;;;;;;33.03;31.02;;;29.00;96.50;;;;;;5051922;28;20744;-74
2022/08/10 12:11:10;;;;;;;32.90;30.95;;;29.30;95.90;;;;;;5049297;28;20052;-74
2022/08/10 12:13:44;;;;;;;34.90;32.40;;;29.00;97.00;;;;;;5044165;28;20518;-74
2022/08/10 12:16:39;;;;;;;32.95;30.95;;;28.40;96.30;;;;;;5044557;28;20051;-74
2022/08/10 12:19:35;;;;;;;32.72;30.50;;;28.20;97.20;;;;;;5054124;28;20076;-74
2022/08/10 12:22:30;;;;;;;33.50;31.30;;;27.60;97.50;;;;;;5042905;28;20045;-74
2022/08/10 12:25:08;;;;;;;32.80;30.73;;;27.20;96.20;;;;;;5049396;28;20517;-74
2022/08/10 12:27:49;;;;;;;32.15;30.05;;;27.10;97.70;;;;;;5052570;28;20095;-74
2022/08/10 12:30:17;;;;;;;34.28;32.17;;;27.80;96.70;;;;;;5053838;28;20110;-74
2022/08/10 12:32:55;;;;;;;32.60;30.50;;;27.80;96.30;;;;;;5022649;28;20466;-75
2022/08/10 12:35:38;;;;;;;32.72;30.52;;;28.30;96.20;;;;;;5041552;28;20124;-74
2022/08/10 12:38:40;;;;;;;33.38;31.27;;;28.50;95.60;;;;;;5043863;28;20056;-74
2022/08/10 12:41:22;;;;;;;33.63;31.73;;;28.80;95.70;;;;;;5045458;28;20090;-74
2022/08/10 12:44:13;;;;;;;32.55;30.42;;;28.80;93.70;;;;;;5043945;28;20091;-74
2022/08/10 12:47:05;;;;;;;33.35;31.23;;;28.30;94.70;;;;;;5037855;28;20438;-76
2022/08/10 12:49:52;;;;;;;33.70;31.70;;;28.50;94.20;;;;;;5062906;28;20041;-74
2022/08/10 12:53:02;;;;;;;34.25;32.05;;;28.70;94.70;;;;;;5046318;28;20556;-75
2022/08/10 12:55:36;;;;;;;33.47;31.58;;;28.20;95.50;;;;;;5051554;28;20262;-75
2022/08/10 12:58:06;;;;;;;33.83;31.95;;;28.50;95.10;;;;;;5055292;28;20110;-73
2022/08/10 13:00:54;;;;;;;34.03;31.73;;;28.50;94.00;;;;;;5044925;28;20040;-74
2022/08/10 13:03:45;;;;;;;33.78;31.77;;;28.30;95.00;;;;;;5047490;28;20123;-73
2022/08/10 13:06:34;;;;;;;33.25;31.25;;;28.00;95.20;;;;;;5043835;28;20045;-74
2022/08/10 13:09:13;;;;;;;34.05;31.95;;;27.90;96.00;;;;;;5051060;28;20104;-74
2022/08/10 13:11:52;;;;;;;32.95;31.08;;;28.10;94.00;;;;;;5065901;28;20080;-75
2022/08/10 13:14:48;;;;;;;33.58;31.55;;;28.70;95.20;;;;;;5054312;28;20157;-74
2022/08/10 13:17:26;;;;;;;33.78;31.67;;;28.40;94.10;;;;;;5058210;28;20048;-74
2022/08/10 13:20:27;;;;;;;34.30;32.22;;;27.90;95.30;;;;;;5039702;28;20130;-74
2022/08/10 13:22:59;;;;;;;34.20;31.90;;;28.20;94.50;;;;;;5047993;28;20110;-74
2022/08/10 13:25:30;;;;;;;33.00;31.08;;;27.50;94.50;;;;;;5044372;28;20103;-74
2022/08/10 13:28:03;;;;;;;32.42;30.50;;;27.70;94.70;;;;;;5050729;28;20044;-74
2022/08/10 13:30:53;;;;;;;34.75;32.63;;;28.00;93.50;;;;;;5051073;28;20055;-74
2022/08/10 13:33:26;;;;;;;34.70;32.58;;;28.70;95.10;;;;;;5054991;28;20524;-74
2022/08/10 13:36:14;;;;;;;34.22;32.33;;;28.90;94.30;;;;;;5044863;28;20144;-74